sensor_id;sensor_type;location;lat;lon;timestamp;pressure;altitude;pressure_sealevel;temperature;humidity
1616;BME280;801;47.982;7.810;2022-10-19T02:30:31;99412.50;;;14.53;100.00
1616;BME280;801;47.982;7.810;2022-10-19T02:32:57;99410.66;;;14.59;100.00
1616;BME280;801;47.982;7.810;2022-10-19T02:35:24;99411.94;;;14.51;100.00
1616;BME280;801;47.982;7.810;2022-10-19T02:37:51;99412.56;;;14.58;100.00
1616;BME280;801;47.982;7.810;2022-10-19T02:40:17;99408.75;;;14.64;100.00
1616;BME280;801;47.982;7.810;2022-10-19T02:42:47;99412.84;;;14.77;100.00
1616;BME280;801;47.982;7.810;2022-10-19T02:45:21;99405.00;;;14.76;100.00
1616;BME280;801;47.982;7.810;2022-10-19T02:47:54;99411.50;;;14.80;100.00
1616;BME280;801;47.982;7.810;2022-10-19T02:50:22;99416.09;;;14.79;100.00
1616;BME280;801;47.982;7.810;2022-10-19T02:52:49;99410.91;;;14.62;100.00
1616;BME280;801;47.982;7.810;2022-10-19T02:55:15;99410.38;;;14.55;100.00
1616;BME280;801;47.982;7.810;2022-10-19T02:57:42;99414.50;;;14.78;100.00
1616;BME280;801;47.982;7.810;2022-10-19T03:00:10;99415.31;;;14.89;100.00
1616;BME280;801;47.982;7.810;2022-10-19T03:02:37;99415.31;;;14.89;100.00
1616;BME280;801;47.982;7.810;2022-10-19T03:05:05;99404.66;;;14.51;100.00
1616;BME280;801;47.982;7.810;2022-10-19T03:07:32;99409.34;;;14.82;100.00
1616;BME280;801;47.982;7.810;2022-10-19T03:09:58;99399.91;;;15.00;100.00
1616;BME280;801;47.982;7.810;2022-10-19T03:12:25;99409.66;;;15.06;100.00
1616;BME280;801;47.982;7.810;2022-10-19T03:14:51;99413.69;;;15.13;100.00
1616;BME280;801;47.982;7.810;2022-10-19T03:17:18;99399.66;;;15.17;100.00
1616;BME280;801;47.982;7.810;2022-10-19T03:19:44;99401.81;;;15.14;100.00
1616;BME280;801;47.982;7.810;2022-10-19T03:22:13;99397.22;;;15.10;100.00
1616;BME280;801;47.982;7.810;2022-10-19T03:24:39;99406.13;;;15.05;100.00
1616;BME280;801;47.982;7.810;2022-10-19T03:27:06;99402.59;;;14.94;100.00
1616;BME280;801;47.982;7.810;2022-10-19T03:29:32;99393.94;;;14.92;100.00
1616;BME280;801;47.982;7.810;2022-10-19T03:31:59;99393.69;;;14.99;100.00
1616;BME280;801;47.982;7.810;2022-10-19T03:34:25;99385.56;;;14.94;100.00
1616;BME280;801;47.982;7.810;2022-10-19T03:36:52;99388.56;;;15.03;100.00
1616;BME280;801;47.982;7.810;2022-10-19T03:39:20;99389.06;;;15.00;100.00
1616;BME280;801;47.982;7.810;2022-10-19T03:41:46;99389.63;;;15.02;100.00
1616;BME280;801;47.982;7.810;2022-10-19T03:44:13;99384.75;;;15.04;100.00
1616;BME280;801;47.982;7.810;2022-10-19T03:46:39;99382.84;;;15.04;100.00
1616;BME280;801;47.982;7.810;2022-10-19T03:49:06;99381.22;;;15.03;100.00
1616;BME280;801;47.982;7.810;2022-10-19T03:51:34;99380.16;;;14.99;100.00
1616;BME280;801;47.982;7.810;2022-10-19T03:54:03;99380.97;;;15.05;100.00
1616;BME280;801;47.982;7.810;2022-10-19T03:56:33;99378.53;;;15.08;100.00
1616;BME280;801;47.982;7.810;2022-10-19T03:59:01;99369.59;;;15.08;100.00
1616;BME280;801;47.982;7.810;2022-10-19T04:01:31;99367.94;;;15.07;100.00
1616;BME280;801;47.982;7.810;2022-10-19T04:03:59;99365.28;;;15.12;100.00
1616;BME280;801;47.982;7.810;2022-10-19T04:06:27;99371.47;;;15.12;100.00
1616;BME280;801;47.982;7.810;2022-10-19T04:08:55;99368.50;;;15.09;100.00
1616;BME280;801;47.982;7.810;2022-10-19T04:11:24;99372.28;;;15.13;100.00
1616;BME280;801;47.982;7.810;2022-10-19T04:13:53;99369.06;;;15.16;100.00
1616;BME280;801;47.982;7.810;2022-10-19T04:16:21;99365.00;;;15.19;100.00
1616;BME280;801;47.982;7.810;2022-10-19T04:18:49;99366.63;;;15.14;100.00
1616;BME280;801;47.982;7.810;2022-10-19T04:21:19;99369.31;;;15.14;100.00
1616;BME280;801;47.982;7.810;2022-10-19T04:23:47;99381.25;;;15.19;100.00
1616;BME280;801;47.982;7.810;2022-10-19T04:26:14;99382.31;;;15.07;100.00
1616;BME280;801;47.982;7.810;2022-10-19T04:28:40;99387.19;;;15.05;100.00
1616;BME280;801;47.982;7.810;2022-10-19T04:31:09;99382.03;;;15.09;100.00
1616;BME280;801;47.982;7.810;2022-10-19T04:33:36;99383.41;;;15.01;100.00
1616;BME280;801;47.982;7.810;2022-10-19T04:36:05;99382.84;;;14.99;100.00
1616;BME280;801;47.982;7.810;2022-10-19T04:38:32;99387.19;;;15.05;100.00
1616;BME280;801;47.982;7.810;2022-10-19T04:41:00;99376.63;;;15.09;100.00
1616;BME280;801;47.982;7.810;2022-10-19T04:43:27;99375.81;;;15.13;100.00
1616;BME280;801;47.982;7.810;2022-10-19T04:45:54;99376.63;;;15.09;100.00
1616;BME280;801;47.982;7.810;2022-10-19T04:48:22;99379.63;;;15.07;100.00
1616;BME280;801;47.982;7.810;2022-10-19T04:50:48;99374.19;;;15.07;100.00
1616;BME280;801;47.982;7.810;2022-10-19T04:53:15;99363.91;;;14.94;100.00
1616;BME280;801;47.982;7.810;2022-10-19T04:55:43;99361.19;;;14.89;100.00
1616;BME280;801;47.982;7.810;2022-10-19T04:58:09;99363.34;;;14.71;100.00
1616;BME280;801;47.982;7.810;2022-10-19T05:00:36;99357.09;;;14.66;100.00
1616;BME280;801;47.982;7.810;2022-10-19T05:03:03;99346.50;;;14.54;100.00
1616;BME280;801;47.982;7.810;2022-10-19T05:05:32;99345.47;;;14.55;100.00
1616;BME280;801;47.982;7.810;2022-10-19T05:07:58;99333.03;;;14.64;100.00
1616;BME280;801;47.982;7.810;2022-10-19T05:10:25;99348.94;;;14.50;100.00
1616;BME280;801;47.982;7.810;2022-10-19T05:12:51;99342.97;;;14.38;100.00
1616;BME280;801;47.982;7.810;2022-10-19T05:15:18;99347.00;;;14.30;100.00
1616;BME280;801;47.982;7.810;2022-10-19T05:17:45;99356.75;;;14.31;100.00
1616;BME280;801;47.982;7.810;2022-10-19T05:20:11;99352.44;;;14.36;100.00
1616;BME280;801;47.982;7.810;2022-10-19T05:22:39;99348.63;;;14.37;100.00
1616;BME280;801;47.982;7.810;2022-10-19T05:25:06;99355.94;;;14.46;100.00
1616;BME280;801;47.982;7.810;2022-10-19T05:27:33;99365.16;;;14.50;100.00
1616;BME280;801;47.982;7.810;2022-10-19T05:30:00;99357.31;;;14.44;100.00
1616;BME280;801;47.982;7.810;2022-10-19T05:32:26;99358.41;;;14.53;100.00
1616;BME280;801;47.982;7.810;2022-10-19T05:34:53;99359.53;;;14.57;100.00
1616;BME280;801;47.982;7.810;2022-10-19T05:37:20;99365.47;;;14.64;100.00
1616;BME280;801;47.982;7.810;2022-10-19T05:39:48;99357.41;;;14.74;100.00
1616;BME280;801;47.982;7.810;2022-10-19T05:42:14;99363.91;;;14.73;100.00
1616;BME280;801;47.982;7.810;2022-10-19T05:44:41;99359.56;;;14.78;100.00
1616;BME280;801;47.982;7.810;2022-10-19T05:47:07;99362.25;;;14.72;100.00
1616;BME280;801;47.982;7.810;2022-10-19T05:49:34;99363.59;;;14.70;100.00
1616;BME280;801;47.982;7.810;2022-10-19T05:52:00;99363.63;;;14.65;100.00
1616;BME280;801;47.982;7.810;2022-10-19T05:54:27;99366.56;;;14.58;100.00
1616;BME280;801;47.982;7.810;2022-10-19T05:56:55;99361.69;;;14.55;100.00
1616;BME280;801;47.982;7.810;2022-10-19T05:59:22;99357.59;;;14.52;100.00
1616;BME280;801;47.982;7.810;2022-10-19T06:01:48;99357.84;;;14.46;100.00
1616;BME280;801;47.982;7.810;2022-10-19T06:04:15;99359.19;;;14.43;100.00
1616;BME280;801;47.982;7.810;2022-10-19T06:06:42;99360.25;;;14.37;100.00
1616;BME280;801;47.982;7.810;2022-10-19T06:09:09;99352.19;;;14.42;100.00
1616;BME280;801;47.982;7.810;2022-10-19T06:11:37;99357.84;;;14.46;100.00
1616;BME280;801;47.982;7.810;2022-10-19T06:14:07;99350.28;;;14.48;100.00
1616;BME280;801;47.982;7.810;2022-10-19T06:16:34;99350.28;;;14.48;100.00
1616;BME280;801;47.982;7.810;2022-10-19T06:19:01;99349.19;;;14.44;100.00
1616;BME280;801;47.982;7.810;2022-10-19T06:21:29;99345.94;;;14.42;100.00
1616;BME280;801;47.982;7.810;2022-10-19T06:23:57;99354.59;;;14.44;100.00
1616;BME280;801;47.982;7.810;2022-10-19T06:26:24;99354.59;;;14.44;100.00
1616;BME280;801;47.982;7.810;2022-10-19T06:28:55;99358.69;;;14.51;100.00
1616;BME280;801;47.982;7.810;2022-10-19T06:31:26;99361.09;;;14.53;100.00
1616;BME280;801;47.982;7.810;2022-10-19T06:33:52;99359.53;;;14.57;100.00
1616;BME280;801;47.982;7.810;2022-10-19T06:36:20;99359.25;;;14.53;100.00
1616;BME280;801;47.982;7.810;2022-10-19T06:38:48;99362.19;;;14.52;100.00
1616;BME280;801;47.982;7.810;2022-10-19T06:41:14;99356.56;;;14.59;100.00
1616;BME280;801;47.982;7.810;2022-10-19T06:43:41;99360.56;;;14.41;100.00
1616;BME280;801;47.982;7.810;2022-10-19T06:46:10;99360.56;;;14.46;100.00
1616;BME280;801;47.982;7.810;2022-10-19T06:48:39;99358.69;;;14.51;100.00
1616;BME280;801;47.982;7.810;2022-10-19T06:51:06;99363.31;;;14.56;100.00
1616;BME280;801;47.982;7.810;2022-10-19T06:53:33;99364.34;;;14.45;100.00
1616;BME280;801;47.982;7.810;2022-10-19T06:56:01;99361.09;;;14.48;100.00
1616;BME280;801;47.982;7.810;2022-10-19T06:58:28;99357.91;;;14.56;100.00
1616;BME280;801;47.982;7.810;2022-10-19T07:00:55;99361.72;;;14.60;100.00
1616;BME280;801;47.982;7.810;2022-10-19T07:03:22;99364.97;;;14.67;100.00
1616;BME280;801;47.982;7.810;2022-10-19T07:05:54;99365.22;;;14.61;100.00
1616;BME280;801;47.982;7.810;2022-10-19T07:08:22;99364.97;;;14.67;100.00
1616;BME280;801;47.982;7.810;2022-10-19T07:10:49;99365.50;;;14.80;100.00
1616;BME280;801;47.982;7.810;2022-10-19T07:13:16;99361.72;;;14.81;100.00
1616;BME280;801;47.982;7.810;2022-10-19T07:15:42;99360.13;;;14.85;100.00
1616;BME280;801;47.982;7.810;2022-10-19T07:18:09;99357.41;;;14.90;100.00
1616;BME280;801;47.982;7.810;2022-10-19T07:20:35;99361.19;;;14.89;100.00
1616;BME280;801;47.982;7.810;2022-10-19T07:23:03;99353.88;;;14.94;100.00
1616;BME280;801;47.982;7.810;2022-10-19T07:25:30;99354.16;;;14.88;100.00
1616;BME280;801;47.982;7.810;2022-10-19T07:27:56;99357.94;;;14.97;100.00
1616;BME280;801;47.982;7.810;2022-10-19T07:30:23;99364.97;;;14.88;100.00
1616;BME280;801;47.982;7.810;2022-10-19T07:32:49;99359.56;;;14.78;100.00
1616;BME280;801;47.982;7.810;2022-10-19T07:35:16;99362.81;;;14.90;100.00
1616;BME280;801;47.982;7.810;2022-10-19T07:37:42;99360.13;;;14.85;100.00
1616;BME280;801;47.982;7.810;2022-10-19T07:40:11;99361.75;;;14.96;100.00
1616;BME280;801;47.982;7.810;2022-10-19T07:42:38;99364.69;;;14.74;100.00
1616;BME280;801;47.982;7.810;2022-10-19T07:45:05;99364.69;;;14.79;100.00
1616;BME280;801;47.982;7.810;2022-10-19T07:47:33;99366.34;;;14.85;100.00
1616;BME280;801;47.982;7.810;2022-10-19T07:49:59;99360.66;;;14.92;100.00
1616;BME280;801;47.982;7.810;2022-10-19T07:52:26;99362.81;;;14.95;100.00
1616;BME280;801;47.982;7.810;2022-10-19T07:54:52;99361.72;;;15.06;100.00
1616;BME280;801;47.982;7.810;2022-10-19T07:57:20;99362.28;;;15.13;100.00
1616;BME280;801;47.982;7.810;2022-10-19T07:59:47;99366.34;;;15.16;100.00
1616;BME280;801;47.982;7.810;2022-10-19T08:02:14;99364.72;;;15.15;100.00
1616;BME280;801;47.982;7.810;2022-10-19T08:04:41;99372.03;;;15.14;100.00
1616;BME280;801;47.982;7.810;2022-10-19T08:07:08;99366.34;;;15.06;100.00
1616;BME280;801;47.982;7.810;2022-10-19T08:09:34;99362.28;;;15.08;100.00
1616;BME280;801;47.982;7.810;2022-10-19T08:12:01;99362.81;;;15.10;100.00
1616;BME280;801;47.982;7.810;2022-10-19T08:14:29;99361.75;;;15.17;100.00
1616;BME280;801;47.982;7.810;2022-10-19T08:16:56;99363.63;;;15.11;100.00
1616;BME280;801;47.982;7.810;2022-10-19T08:19:22;99364.69;;;14.64;100.00
1616;BME280;801;47.982;7.810;2022-10-19T08:21:49;99362.28;;;14.83;100.00
1616;BME280;801;47.982;7.810;2022-10-19T08:24:17;99364.97;;;14.78;100.00
1616;BME280;801;47.982;7.810;2022-10-19T08:26:44;99367.88;;;14.50;100.00
1616;BME280;801;47.982;7.810;2022-10-19T08:29:12;99366.50;;;14.43;100.00
1616;BME280;801;47.982;7.810;2022-10-19T08:31:41;99364.94;;;14.62;100.00
1616;BME280;801;47.982;7.810;2022-10-19T08:34:07;99359.00;;;14.76;100.00
1616;BME280;801;47.982;7.810;2022-10-19T08:36:34;99363.88;;;14.63;100.00
1616;BME280;801;47.982;7.810;2022-10-19T08:39:02;99363.31;;;14.66;100.00
1616;BME280;801;47.982;7.810;2022-10-19T08:41:32;99356.84;;;14.72;100.00
1616;BME280;801;47.982;7.810;2022-10-19T08:44:19;99354.41;;;14.81;100.00
1616;BME280;801;47.982;7.810;2022-10-19T08:46:56;99355.22;;;14.66;100.00
1616;BME280;801;47.982;7.810;2022-10-19T08:49:28;99352.25;;;14.73;100.00
1616;BME280;801;47.982;7.810;2022-10-19T08:51:58;99349.28;;;14.69;100.00
1616;BME280;801;47.982;7.810;2022-10-19T08:54:31;99346.03;;;14.72;100.00
1616;BME280;801;47.982;7.810;2022-10-19T08:57:12;99347.13;;;14.77;100.00
1616;BME280;801;47.982;7.810;2022-10-19T08:59:44;99357.41;;;14.69;100.00
1616;BME280;801;47.982;7.810;2022-10-19T09:02:17;99345.22;;;14.72;100.00
1616;BME280;801;47.982;7.810;2022-10-19T09:04:49;99343.31;;;14.67;100.00
1616;BME280;801;47.982;7.810;2022-10-19T09:07:25;99341.72;;;14.77;100.00
1616;BME280;801;47.982;7.810;2022-10-19T09:09:55;99340.09;;;15.01;100.00
1616;BME280;801;47.982;7.810;2022-10-19T09:12:39;99336.28;;;15.28;100.00
1616;BME280;801;47.982;7.810;2022-10-19T09:15:10;99335.19;;;15.34;100.00
1616;BME280;801;47.982;7.810;2022-10-19T09:17:39;99330.59;;;15.34;100.00
1616;BME280;801;47.982;7.810;2022-10-19T09:20:15;99341.41;;;15.24;100.00
1616;BME280;801;47.982;7.810;2022-10-19T09:22:43;99343.88;;;14.85;100.00
1616;BME280;801;47.982;7.810;2022-10-19T09:25:13;99334.13;;;14.79;100.00
1616;BME280;801;47.982;7.810;2022-10-19T09:27:46;99330.88;;;14.97;100.00
1616;BME280;801;47.982;7.810;2022-10-19T09:30:17;99332.50;;;14.78;100.00
1616;BME280;801;47.982;7.810;2022-10-19T09:32:46;99332.25;;;15.10;100.00
1616;BME280;801;47.982;7.810;2022-10-19T09:35:22;99329.22;;;15.37;100.00
1616;BME280;801;47.982;7.810;2022-10-19T09:37:50;99324.31;;;15.44;100.00
1616;BME280;801;47.982;7.810;2022-10-19T09:40:18;99336.25;;;15.43;100.00
1616;BME280;801;47.982;7.810;2022-10-19T09:42:45;99323.00;;;15.31;100.00
1616;BME280;801;47.982;7.810;2022-10-19T09:45:21;99326.25;;;15.39;100.00
1616;BME280;801;47.982;7.810;2022-10-19T09:47:50;99335.44;;;15.38;100.00
1616;BME280;801;47.982;7.810;2022-10-19T09:50:20;99329.22;;;15.27;100.00
1616;BME280;801;47.982;7.810;2022-10-19T09:52:50;99327.56;;;15.46;100.00
1616;BME280;801;47.982;7.810;2022-10-19T09:55:22;99331.91;;;15.52;100.00
1616;BME280;801;47.982;7.810;2022-10-19T09:57:58;99328.94;;;15.33;100.00
1616;BME280;801;47.982;7.810;2022-10-19T10:00:31;99320.03;;;15.28;100.00
1616;BME280;801;47.982;7.810;2022-10-19T10:02:59;99325.72;;;15.11;100.00
1616;BME280;801;47.982;7.810;2022-10-19T10:05:31;99320.56;;;15.25;100.00
1616;BME280;801;47.982;7.810;2022-10-19T10:07:58;99312.69;;;15.44;100.00
1616;BME280;801;47.982;7.810;2022-10-19T10:10:27;99327.09;;;15.19;100.00
1616;BME280;801;47.982;7.810;2022-10-19T10:12:56;99320.28;;;15.31;100.00
1616;BME280;801;47.982;7.810;2022-10-19T10:15:25;99311.66;;;15.29;100.00
1616;BME280;801;47.982;7.810;2022-10-19T10:17:54;99312.97;;;15.27;100.00
1616;BME280;801;47.982;7.810;2022-10-19T10:20:25;99308.66;;;15.31;100.00
1616;BME280;801;47.982;7.810;2022-10-19T10:22:56;99306.47;;;15.38;100.00
1616;BME280;801;47.982;7.810;2022-10-19T10:25:28;99311.28;;;15.51;100.00
1616;BME280;801;47.982;7.810;2022-10-19T10:28:00;99306.97;;;15.55;100.00
1616;BME280;801;47.982;7.810;2022-10-19T10:30:32;99308.84;;;15.65;100.00
1616;BME280;801;47.982;7.810;2022-10-19T10:33:00;99304.59;;;15.39;100.00
1616;BME280;801;47.982;7.810;2022-10-19T10:35:31;99308.06;;;15.44;100.00
1616;BME280;801;47.982;7.810;2022-10-19T10:38:12;99303.44;;;15.55;100.00
1616;BME280;801;47.982;7.810;2022-10-19T10:40:40;99301.00;;;15.74;100.00
1616;BME280;801;47.982;7.810;2022-10-19T10:43:16;99305.31;;;15.70;100.00
1616;BME280;801;47.982;7.810;2022-10-19T10:45:45;99309.38;;;15.72;100.00
1616;BME280;801;47.982;7.810;2022-10-19T10:48:19;99298.28;;;15.74;100.00
1616;BME280;801;47.982;7.810;2022-10-19T10:50:50;99289.03;;;15.80;100.00
1616;BME280;801;47.982;7.810;2022-10-19T10:53:44;99283.03;;;15.88;100.00
1616;BME280;801;47.982;7.810;2022-10-19T10:56:21;99290.06;;;15.89;100.00
1616;BME280;801;47.982;7.810;2022-10-19T10:58:53;99281.09;;;15.99;100.00
1616;BME280;801;47.982;7.810;2022-10-19T11:01:25;99279.22;;;15.89;100.00
1616;BME280;801;47.982;7.810;2022-10-19T11:03:58;99273.63;;;16.20;100.00
1616;BME280;801;47.982;7.810;2022-10-19T11:06:26;99270.34;;;16.28;100.00
1616;BME280;801;47.982;7.810;2022-10-19T11:09:00;99265.44;;;16.30;100.00
1616;BME280;801;47.982;7.810;2022-10-19T11:11:34;99250.81;;;16.26;100.00
1616;BME280;801;47.982;7.810;2022-10-19T11:14:32;99258.34;;;15.95;100.00
1616;BME280;801;47.982;7.810;2022-10-19T11:17:04;99254.84;;;15.84;100.00
1616;BME280;801;47.982;7.810;2022-10-19T11:19:34;99256.13;;;16.02;100.00
1616;BME280;801;47.982;7.810;2022-10-19T11:22:10;99253.06;;;16.14;100.00
1616;BME280;801;47.982;7.810;2022-10-19T11:24:52;99237.56;;;15.75;100.00
1616;BME280;801;47.982;7.810;2022-10-19T11:27:32;99243.50;;;15.77;100.00
1616;BME280;801;47.982;7.810;2022-10-19T11:30:08;99227.88;;;15.59;100.00
1616;BME280;801;47.982;7.810;2022-10-19T11:32:48;99224.28;;;15.73;100.00
1616;BME280;801;47.982;7.810;2022-10-19T11:35:27;99220.19;;;15.81;100.00
1616;BME280;801;47.982;7.810;2022-10-19T11:38:06;99219.13;;;15.77;100.00
1616;BME280;801;47.982;7.810;2022-10-19T11:40:42;99208.38;;;15.56;100.00
1616;BME280;801;47.982;7.810;2022-10-19T11:43:18;99208.13;;;15.48;100.00
1616;BME280;801;47.982;7.810;2022-10-19T11:45:52;99207.84;;;15.49;100.00
1616;BME280;801;47.982;7.810;2022-10-19T11:48:34;99202.34;;;15.65;100.00
1616;BME280;801;47.982;7.810;2022-10-19T11:51:08;99199.09;;;15.63;100.00
1616;BME280;801;47.982;7.810;2022-10-19T11:53:50;99194.00;;;15.61;100.00
1616;BME280;801;47.982;7.810;2022-10-19T11:56:24;99189.72;;;15.50;100.00
1616;BME280;801;47.982;7.810;2022-10-19T11:58:58;99185.53;;;15.73;100.00
1616;BME280;801;47.982;7.810;2022-10-19T12:01:41;99185.81;;;15.76;100.00
1616;BME280;801;47.982;7.810;2022-10-19T12:04:22;99189.19;;;15.43;100.00
1616;BME280;801;47.982;7.810;2022-10-19T12:07:00;99175.47;;;15.84;100.00
1616;BME280;801;47.982;7.810;2022-10-19T12:09:45;99174.66;;;15.83;100.00
1616;BME280;801;47.982;7.810;2022-10-19T12:12:24;99168.19;;;15.79;100.00
1616;BME280;801;47.982;7.810;2022-10-19T12:15:02;99173.16;;;15.56;100.00
1616;BME280;801;47.982;7.810;2022-10-19T12:17:32;99175.25;;;15.70;100.00
1616;BME280;801;47.982;7.810;2022-10-19T12:20:04;99164.06;;;15.87;100.00
1616;BME280;801;47.982;7.810;2022-10-19T12:22:34;99157.19;;;16.00;100.00
1616;BME280;801;47.982;7.810;2022-10-19T12:25:04;99150.97;;;15.99;100.00
1616;BME280;801;47.982;7.810;2022-10-19T12:27:34;99147.84;;;16.16;100.00
1616;BME280;801;47.982;7.810;2022-10-19T12:30:05;99147.97;;;16.01;100.00
1616;BME280;801;47.982;7.810;2022-10-19T12:32:38;99140.34;;;16.08;100.00
1616;BME280;801;47.982;7.810;2022-10-19T12:35:21;99135.56;;;15.89;100.00
1616;BME280;801;47.982;7.810;2022-10-19T12:37:54;99130.66;;;15.96;100.00
1616;BME280;801;47.982;7.810;2022-10-19T12:40:27;99135.66;;;15.79;100.00
1616;BME280;801;47.982;7.810;2022-10-19T12:43:03;99121.91;;;16.05;100.00
1616;BME280;801;47.982;7.810;2022-10-19T12:45:34;99123.50;;;16.11;100.00
1616;BME280;801;47.982;7.810;2022-10-19T12:48:16;99127.94;;;15.96;100.00
1616;BME280;801;47.982;7.810;2022-10-19T12:51:01;99120.47;;;16.17;100.00
1616;BME280;801;47.982;7.810;2022-10-19T12:53:31;99130.44;;;16.22;100.00
1616;BME280;801;47.982;7.810;2022-10-19T12:56:04;99120.84;;;16.35;100.00
1616;BME280;801;47.982;7.810;2022-10-19T12:58:34;99115.03;;;16.47;100.00
1616;BME280;801;47.982;7.810;2022-10-19T13:01:04;99115.56;;;16.49;100.00
1616;BME280;801;47.982;7.810;2022-10-19T13:03:33;99108.22;;;16.49;100.00
1616;BME280;801;47.982;7.810;2022-10-19T13:06:06;99110.81;;;16.35;100.00
1616;BME280;801;47.982;7.810;2022-10-19T13:08:41;99099.38;;;16.38;100.00
1616;BME280;801;47.982;7.810;2022-10-19T13:11:12;99104.47;;;16.45;100.00
1616;BME280;801;47.982;7.810;2022-10-19T13:13:59;99091.75;;;16.40;100.00
1616;BME280;801;47.982;7.810;2022-10-19T13:17:00;99088.13;;;16.26;100.00
1616;BME280;801;47.982;7.810;2022-10-19T13:19:27;99088.50;;;16.44;100.00
1616;BME280;801;47.982;7.810;2022-10-19T13:22:22;99088.69;;;16.52;100.00
1616;BME280;801;47.982;7.810;2022-10-19T13:25:19;99089.47;;;16.53;100.00
1616;BME280;801;47.982;7.810;2022-10-19T13:27:49;99087.50;;;16.34;100.00
1616;BME280;801;47.982;7.810;2022-10-19T13:33:50;99083.91;;;16.68;100.00
1616;BME280;801;47.982;7.810;2022-10-19T13:36:18;99081.63;;;16.75;100.00
1616;BME280;801;47.982;7.810;2022-10-19T13:38:47;99080.53;;;16.82;100.00
1616;BME280;801;47.982;7.810;2022-10-19T13:41:44;99071.06;;;16.74;100.00
1616;BME280;801;47.982;7.810;2022-10-19T13:44:23;99080.00;;;16.79;100.00
1616;BME280;801;47.982;7.810;2022-10-19T13:46:56;99068.84;;;16.81;100.00
1616;BME280;801;47.982;7.810;2022-10-19T13:49:40;99075.63;;;16.78;100.00
1616;BME280;801;47.982;7.810;2022-10-19T13:52:34;99068.25;;;16.60;100.00
1616;BME280;801;47.982;7.810;2022-10-19T13:55:21;99063.84;;;16.64;100.00
1616;BME280;801;47.982;7.810;2022-10-19T13:58:04;99065.59;;;16.55;100.00
1616;BME280;801;47.982;7.810;2022-10-19T14:00:51;99062.00;;;16.59;100.00
1616;BME280;801;47.982;7.810;2022-10-19T14:03:33;99061.34;;;16.68;100.00
1616;BME280;801;47.982;7.810;2022-10-19T14:06:16;99055.13;;;16.67;100.00
1616;BME280;801;47.982;7.810;2022-10-19T14:09:09;99059.69;;;16.72;100.00
1616;BME280;801;47.982;7.810;2022-10-19T14:11:39;99061.22;;;16.59;100.00
1616;BME280;801;47.982;7.810;2022-10-19T14:14:13;99064.91;;;16.68;100.00
1616;BME280;801;47.982;7.810;2022-10-19T14:16:50;99073.47;;;16.80;100.00
1616;BME280;801;47.982;7.810;2022-10-19T14:19:24;99066.66;;;16.54;100.00
1616;BME280;801;47.982;7.810;2022-10-19T14:21:55;99056.25;;;16.66;100.00
1616;BME280;801;47.982;7.810;2022-10-19T14:24:29;99050.34;;;16.83;100.00
1616;BME280;801;47.982;7.810;2022-10-19T14:26:56;99046.22;;;16.91;100.00
1616;BME280;801;47.982;7.810;2022-10-19T14:29:24;99050.75;;;16.95;100.00
1616;BME280;801;47.982;7.810;2022-10-19T14:31:52;99061.34;;;16.97;100.00
1616;BME280;801;47.982;7.810;2022-10-19T14:34:19;99052.78;;;16.85;100.00
1616;BME280;801;47.982;7.810;2022-10-19T14:36:48;99044.00;;;16.93;100.00
1616;BME280;801;47.982;7.810;2022-10-19T14:39:23;99040.41;;;16.97;100.00
1616;BME280;801;47.982;7.810;2022-10-19T14:41:53;99042.53;;;16.76;100.00
1616;BME280;801;47.982;7.810;2022-10-19T14:44:31;99038.13;;;16.86;100.00
1616;BME280;801;47.982;7.810;2022-10-19T14:47:08;99033.34;;;16.96;100.00
1616;BME280;801;47.982;7.810;2022-10-19T14:49:41;99042.53;;;16.82;100.00
1616;BME280;801;47.982;7.810;2022-10-19T14:52:08;99041.81;;;16.95;100.00
1616;BME280;801;47.982;7.810;2022-10-19T14:54:40;99040.25;;;16.89;100.00
1616;BME280;801;47.982;7.810;2022-10-19T14:57:12;99045.59;;;16.70;100.00
1616;BME280;801;47.982;7.810;2022-10-19T14:59:43;99053.47;;;16.71;100.00
1616;BME280;801;47.982;7.810;2022-10-19T15:02:16;99041.28;;;16.45;100.00
1616;BME280;801;47.982;7.810;2022-10-19T15:04:44;99045.72;;;16.59;100.00
1616;BME280;801;47.982;7.810;2022-10-19T15:07:16;99043.75;;;16.65;100.00
1616;BME280;801;47.982;7.810;2022-10-19T15:09:49;99036.75;;;16.88;100.00
1616;BME280;801;47.982;7.810;2022-10-19T15:12:20;99042.34;;;16.97;100.00
1616;BME280;801;47.982;7.810;2022-10-19T15:14:47;99034.56;;;17.09;100.00
1616;BME280;801;47.982;7.810;2022-10-19T15:17:23;99040.97;;;16.94;100.00
1616;BME280;801;47.982;7.810;2022-10-19T15:19:50;99030.81;;;17.05;100.00
1616;BME280;801;47.982;7.810;2022-10-19T15:22:19;99015.31;;;17.06;100.00
1616;BME280;801;47.982;7.810;2022-10-19T15:24:55;99019.38;;;17.08;100.00
1616;BME280;801;47.982;7.810;2022-10-19T15:27:28;99011.22;;;17.08;100.00
1616;BME280;801;47.982;7.810;2022-10-19T15:29:56;99009.25;;;17.14;100.00
1616;BME280;801;47.982;7.810;2022-10-19T15:32:28;99011.81;;;17.24;100.00
1616;BME280;801;47.982;7.810;2022-10-19T15:34:56;99011.75;;;17.10;100.00
1616;BME280;801;47.982;7.810;2022-10-19T15:37:23;99012.25;;;17.12;100.00
1616;BME280;801;47.982;7.810;2022-10-19T15:39:50;99014.38;;;17.15;100.00
1616;BME280;801;47.982;7.810;2022-10-19T15:42:22;99012.84;;;17.09;100.00
1616;BME280;801;47.982;7.810;2022-10-19T15:44:56;99007.84;;;16.97;100.00
1616;BME280;801;47.982;7.810;2022-10-19T15:47:24;99004.53;;;17.00;100.00
1616;BME280;801;47.982;7.810;2022-10-19T15:49:59;99011.63;;;16.96;100.00
1616;BME280;801;47.982;7.810;2022-10-19T15:52:27;99012.91;;;17.04;100.00
1616;BME280;801;47.982;7.810;2022-10-19T15:54:55;99005.41;;;16.72;100.00
1616;BME280;801;47.982;7.810;2022-10-19T15:57:29;99006.25;;;16.72;100.00
1616;BME280;801;47.982;7.810;2022-10-19T15:59:57;98993.75;;;16.95;100.00
1616;BME280;801;47.982;7.810;2022-10-19T16:02:26;98993.81;;;17.09;100.00
1616;BME280;801;47.982;7.810;2022-10-19T16:04:53;98993.59;;;17.06;100.00
1616;BME280;801;47.982;7.810;2022-10-19T16:07:24;98996.25;;;17.11;100.00
1616;BME280;801;47.982;7.810;2022-10-19T16:09:51;98995.94;;;17.12;100.00
1616;BME280;801;47.982;7.810;2022-10-19T16:12:18;98992.44;;;17.12;100.00
1616;BME280;801;47.982;7.810;2022-10-19T16:14:45;98987.97;;;17.02;100.00